Bauang Weathercam more information Bauang Weathercam


Thunder radar more information blitzortung!


Rain radar more information rain snow radar


Visit other webcamsites:

Youtube



Nearby METAR Reports

   
RPLC - Angeles/Pampanga, Philippines
Distance from station: S 165 km
Updated: 28-05-2022 14:00
Haze, Mostly Cloudy  
Haze, Mostly Cloudy  
   Wind: South 3.1 m/s
Wind: South 3.1 m/s
Temperature: 29°C
Heat Index: 33°C
Dew Point: 24°C
Humidity: 74%
Barometer: 1009 hPa
Clouds: Mostly Cloudy
Visibility: 4 km
Cloud details: Partly Cloudy 609.6 m,
Mostly Cloudy 3048 m
RPLC 280600Z 18006KT 4000 HZ SCT020 BKN100 29/24 Q1009 RERA RMK A2980
RPLI - Laoag Intl(Ph-Ar, Philippines
Distance from station: N 172 km
Updated: 28-05-2022 14:00
Thunderstorm, Partly Cloudy  
Thunderstorm, Partly Cloudy  
   Wind: West 4.1 m/s
Wind: West 4.1 m/s
Temperature: 32°C
Heat Index: 42°C
Dew Point: 27°C
Humidity: 75%
Barometer: 1007 hPa
Clouds: Partly Cloudy
Visibility: More than 10 km
Cloud details: Few Clouds 518.2 m,
Partly Cloudy 2438.4 m
RPLI 280600Z 26008KT 220V310 9999 TS FEW017CB SCT080 32/27 Q1007 NOSIG RMK A2974 CB NE-S
RPLB - Olongapo/Subic, Philippines
Distance from station: S 203 km
Updated: 28-05-2022 14:00
Mostly Cloudy  
Mostly Cloudy  
   Wind: SSW 5.1 m/s
Wind: SSW 5.1 m/s
Temperature: 29°C
Heat Index: 33°C
Dew Point: 23°C
Humidity: 70%
Barometer: 1009 hPa
Clouds: Mostly Cloudy
Visibility: More than 10 km
Cloud details: Partly Cloudy 548.6 m,
Mostly Cloudy 2438.4 m
RPLB 280600Z 21010KT 9999 SCT018 BKN080 29/23 Q1009 NOSIG RMK A2980
RPLL - Ninoy Aquino Int, Philippines
Distance from station: SSE 246 km
Updated: 28-05-2022 14:25
Light Thunderstorm, Rain, Overcast  
Light Thunderstorm, Rain, Overcast  
   Wind: WSW 5.7 m/s
Wind: WSW 5.7 m/s
Temperature: 26°C
Dew Point: 25°C
Humidity: 94%
Barometer: 1008 hPa
Clouds: Overcast
Visibility: 8 km
Cloud details: Few Clouds 518.2 m,
Partly Cloudy 670.6 m,
Overcast 2743.2 m
RPLL 280625Z 25011KT 8000 -TSRA FEW017CB SCT022 OVC090 26/25 Q1008 TEMPO 6000 TSRA RMK A2977 CB OHD SW NW
RPMR - Romblon/Tablas I, Philippines
Distance from station: SSE 498 km
Updated: 28-05-2022 14:00
Mostly Cloudy  
Mostly Cloudy  
   Wind: NE 2.1 m/s
Wind: NE 2.1 m/s
Temperature: 28°C
Heat Index: 30°C
Dew Point: 21°C
Humidity: 66%
Barometer: 1010 hPa
Clouds: Mostly Cloudy
Visibility: More than 10 km
Cloud details: Partly Cloudy 548.6 m,
Mostly Cloudy 2438.4 m
RPMR 280600Z 05004KT 010V070 9999 SCT018 BKN080 28/21 Q1010 RMK A2983
RPVP - Puerto Princesa, Philippines
Distance from station: SSW 778 km
Updated: 28-05-2022 14:00
Overcast  
Overcast  
   Wind: NNE 2.1 m/s
Wind: NNE 2.1 m/s
Temperature: 26°C
Dew Point: 24°C
Humidity: 89%
Barometer: 1009 hPa
Clouds: Overcast
Visibility: More than 10 km
Cloud details: Partly Cloudy 579.1 m,
Overcast 2438.4 m
RPVP 280600Z 03004KT 9999 SCT019 OVC080 26/24 Q1009 RERA RMK A2980
RPVM - Mactan-Cebu, Philippines
Distance from station: SSE 800 km
Updated: 28-05-2022 14:00
Mostly Cloudy  
Mostly Cloudy  
   Wind: WSW 4.6 m/s
Wind: WSW 4.6 m/s
Temperature: 32°C
Heat Index: 39°C
Dew Point: 25°C
Humidity: 67%
Barometer: 1009 hPa
Clouds: Mostly Cloudy
Visibility: More than 10 km
Cloud details: Partly Cloudy 548.6 m,
Mostly Cloudy 3048 m
RPVM 280600Z 24009KT 9999 SCT018CB BKN100 32/25 Q1009 RMK A2980 CB NE/SE/NW/N
RPMZ - Zamboanga (civ/A, Philippines
Distance from station: S 1090 km
Updated: 28-05-2022 14:00
Mostly Cloudy  
Mostly Cloudy  
   Wind: West 3.6 m/s
Wind: West 3.6 m/s
Temperature: 30°C
Heat Index: 35°C
Dew Point: 24°C
Humidity: 70%
Barometer: 1009 hPa
Clouds: Mostly Cloudy
Visibility: More than 10 km
Cloud details: Few Clouds 487.7 m,
Few Clouds 518.2 m,
Mostly Cloudy 2743.2 m
RPMZ 280600Z 28007KT 9999 FEW016CB FEW017 BKN090 30/24 Q1009 RMK A2980 CB NE/SE-S
RPMD - Davao/Francisco, Philippines
Distance from station: SSE 1198 km
Updated: 28-05-2022 14:00
Overcast  
Overcast  
   Wind: South 2.6 m/s
Wind: South 2.6 m/s
Temperature: 30°C
Heat Index: 34°C
Dew Point: 23°C
Humidity: 66%
Barometer: 1009 hPa
Clouds: Overcast
Visibility: More than 10 km
Cloud details: Few Clouds 487.7 m,
Mostly Cloudy 2743.2 m,
Overcast 7924.8 m
RPMD 280600Z 17005KT 140V200 9999 FEW016 BKN090 OVC260 30/23 Q1009 RMK A2980

Script developed by  Saratoga-weather.org Adapted for the template by  Weerstation Leuven

You find our weather info also at:

Ambient Weather

WeatherCloud

Philippine Atmospheric, Geophysical and Astronomical Services Administration